Terminal Aerodrome Forecast
Issued by NWS

Home | Current Version | Previous Version | Text Only | Print | Product List | Glossary On
Versions: 1 2 3 4 5 6 7 8 9 10 11 12 13 14 15 16 17 18 19 20 21 22 23 24 25 26 27 28 29 30 31 32 33 34 35 36 37 38 39 40 41 42
628
FTUS43 KGRB 151720
TAFATW
TAF
KATW 151720Z 1518/1618 22004KT P6SM SCT120 SCT250
     FM160100 22003KT P6SM FEW120 SCT250
      TEMPO 1610/1614 5SM BR
     FM161500 22004KT P6SM SCT120 BKN200=

USA.gov is the U.S. government's official web portal to all federal, state and local government web resources and services.